sensor_id;sensor_type;location;lat;lon;timestamp;temperature;humidity
12043;DHT22;6082;49.306;12.862;2022-09-09T00:09:14;15.20;99.90
12043;DHT22;6082;49.306;12.862;2022-09-09T00:14:25;15.10;99.90
12043;DHT22;6082;49.306;12.862;2022-09-09T00:16:57;15.10;99.90
12043;DHT22;6082;49.306;12.862;2022-09-09T00:19:41;15.10;99.90
12043;DHT22;6082;49.306;12.862;2022-09-09T00:22:25;15.00;99.90
12043;DHT22;6082;49.306;12.862;2022-09-09T00:24:57;15.00;99.90
12043;DHT22;6082;49.306;12.862;2022-09-09T00:27:50;15.00;99.90
12043;DHT22;6082;49.306;12.862;2022-09-09T00:30:35;15.00;99.90
12043;DHT22;6082;49.306;12.862;2022-09-09T00:33:10;15.00;99.90
12043;DHT22;6082;49.306;12.862;2022-09-09T00:35:46;14.90;99.90
12043;DHT22;6082;49.306;12.862;2022-09-09T00:38:33;15.00;99.90
12043;DHT22;6082;49.306;12.862;2022-09-09T00:41:10;14.90;99.90
12043;DHT22;6082;49.306;12.862;2022-09-09T00:43:39;14.90;99.90
12043;DHT22;6082;49.306;12.862;2022-09-09T00:47:43;14.90;99.90
12043;DHT22;6082;49.306;12.862;2022-09-09T00:52:27;14.90;99.90
12043;DHT22;6082;49.306;12.862;2022-09-09T00:55:13;14.90;99.90
12043;DHT22;6082;49.306;12.862;2022-09-09T00:57:41;14.80;99.90
12043;DHT22;6082;49.306;12.862;2022-09-09T01:00:44;14.80;99.90
12043;DHT22;6082;49.306;12.862;2022-09-09T01:08:50;14.70;99.90
12043;DHT22;6082;49.306;12.862;2022-09-09T01:11:24;14.70;99.90
12043;DHT22;6082;49.306;12.862;2022-09-09T01:14:01;14.70;99.90
12043;DHT22;6082;49.306;12.862;2022-09-09T01:16:30;14.70;99.90
12043;DHT22;6082;49.306;12.862;2022-09-09T01:18:57;14.70;99.90
12043;DHT22;6082;49.306;12.862;2022-09-09T01:21:39;14.60;99.90
12043;DHT22;6082;49.306;12.862;2022-09-09T01:24:20;14.60;99.90
12043;DHT22;6082;49.306;12.862;2022-09-09T01:26:51;14.60;99.90
12043;DHT22;6082;49.306;12.862;2022-09-09T01:29:19;14.60;99.90
12043;DHT22;6082;49.306;12.862;2022-09-09T01:34:22;14.50;99.90
12043;DHT22;6082;49.306;12.862;2022-09-09T01:39:30;14.40;99.90
12043;DHT22;6082;49.306;12.862;2022-09-09T01:41:57;14.40;99.90
12043;DHT22;6082;49.306;12.862;2022-09-09T01:44:23;14.40;99.90
12043;DHT22;6082;49.306;12.862;2022-09-09T01:46:49;14.40;99.90
12043;DHT22;6082;49.306;12.862;2022-09-09T01:49:16;14.40;99.90
12043;DHT22;6082;49.306;12.862;2022-09-09T01:51:43;14.40;99.90
12043;DHT22;6082;49.306;12.862;2022-09-09T01:54:11;14.40;99.90
12043;DHT22;6082;49.306;12.862;2022-09-09T01:56:43;14.30;99.90
12043;DHT22;6082;49.306;12.862;2022-09-09T02:05:37;14.30;99.90
12043;DHT22;6082;49.306;12.862;2022-09-09T02:08:08;14.30;99.90
12043;DHT22;6082;49.306;12.862;2022-09-09T02:13:14;14.20;99.90
12043;DHT22;6082;49.306;12.862;2022-09-09T02:21:08;14.20;99.90
12043;DHT22;6082;49.306;12.862;2022-09-09T02:23:36;14.20;99.90
12043;DHT22;6082;49.306;12.862;2022-09-09T02:26:02;14.10;99.90
12043;DHT22;6082;49.306;12.862;2022-09-09T02:28:32;14.10;99.90
12043;DHT22;6082;49.306;12.862;2022-09-09T02:30:58;14.10;99.90
12043;DHT22;6082;49.306;12.862;2022-09-09T02:33:28;14.10;99.90
12043;DHT22;6082;49.306;12.862;2022-09-09T02:35:58;14.10;99.90
12043;DHT22;6082;49.306;12.862;2022-09-09T02:38:31;14.10;99.90
12043;DHT22;6082;49.306;12.862;2022-09-09T02:40:57;14.00;99.90
12043;DHT22;6082;49.306;12.862;2022-09-09T02:43:24;14.00;99.90
12043;DHT22;6082;49.306;12.862;2022-09-09T02:46:14;14.00;99.90
12043;DHT22;6082;49.306;12.862;2022-09-09T02:48:59;14.00;99.90
12043;DHT22;6082;49.306;12.862;2022-09-09T02:57:10;14.00;99.90
12043;DHT22;6082;49.306;12.862;2022-09-09T02:59:36;14.00;99.90
12043;DHT22;6082;49.306;12.862;2022-09-09T03:02:02;13.90;99.90
12043;DHT22;6082;49.306;12.862;2022-09-09T03:04:28;13.90;99.90
12043;DHT22;6082;49.306;12.862;2022-09-09T03:06:55;13.90;99.90
12043;DHT22;6082;49.306;12.862;2022-09-09T03:09:21;13.90;99.90
12043;DHT22;6082;49.306;12.862;2022-09-09T03:11:46;13.90;99.90
12043;DHT22;6082;49.306;12.862;2022-09-09T03:14:12;13.90;99.90
12043;DHT22;6082;49.306;12.862;2022-09-09T03:16:38;13.90;99.90
12043;DHT22;6082;49.306;12.862;2022-09-09T03:19:03;13.90;99.90
12043;DHT22;6082;49.306;12.862;2022-09-09T03:21:29;13.90;99.90
12043;DHT22;6082;49.306;12.862;2022-09-09T03:23:55;13.90;99.90
12043;DHT22;6082;49.306;12.862;2022-09-09T03:26:21;13.90;99.90
12043;DHT22;6082;49.306;12.862;2022-09-09T03:28:46;13.90;99.90
12043;DHT22;6082;49.306;12.862;2022-09-09T03:31:13;13.90;99.90
12043;DHT22;6082;49.306;12.862;2022-09-09T03:33:40;13.90;99.90
12043;DHT22;6082;49.306;12.862;2022-09-09T03:36:08;13.90;99.90
12043;DHT22;6082;49.306;12.862;2022-09-09T03:38:34;13.90;99.90
12043;DHT22;6082;49.306;12.862;2022-09-09T03:41:00;13.90;99.90
12043;DHT22;6082;49.306;12.862;2022-09-09T03:43:28;13.80;99.90
12043;DHT22;6082;49.306;12.862;2022-09-09T03:45:54;13.90;99.90
12043;DHT22;6082;49.306;12.862;2022-09-09T03:48:24;13.80;99.90
12043;DHT22;6082;49.306;12.862;2022-09-09T03:50:52;13.80;99.90
12043;DHT22;6082;49.306;12.862;2022-09-09T03:53:20;13.80;99.90
12043;DHT22;6082;49.306;12.862;2022-09-09T03:55:47;13.80;99.90
12043;DHT22;6082;49.306;12.862;2022-09-09T03:58:14;13.80;99.90
12043;DHT22;6082;49.306;12.862;2022-09-09T04:00:40;13.80;99.90
12043;DHT22;6082;49.306;12.862;2022-09-09T04:03:11;13.80;99.90
12043;DHT22;6082;49.306;12.862;2022-09-09T04:05:39;13.70;99.90
12043;DHT22;6082;49.306;12.862;2022-09-09T04:08:07;13.70;99.90
12043;DHT22;6082;49.306;12.862;2022-09-09T04:10:33;13.70;99.90
12043;DHT22;6082;49.306;12.862;2022-09-09T04:12:59;13.70;99.90
12043;DHT22;6082;49.306;12.862;2022-09-09T04:15:25;13.70;99.90
12043;DHT22;6082;49.306;12.862;2022-09-09T04:17:50;13.70;99.90
12043;DHT22;6082;49.306;12.862;2022-09-09T04:20:16;13.60;99.90
12043;DHT22;6082;49.306;12.862;2022-09-09T04:22:42;13.60;99.90
12043;DHT22;6082;49.306;12.862;2022-09-09T04:25:08;13.60;99.90
12043;DHT22;6082;49.306;12.862;2022-09-09T04:27:33;13.60;99.90
12043;DHT22;6082;49.306;12.862;2022-09-09T04:29:59;13.50;99.90
12043;DHT22;6082;49.306;12.862;2022-09-09T04:32:24;13.60;99.90
12043;DHT22;6082;49.306;12.862;2022-09-09T04:34:53;13.60;99.90
12043;DHT22;6082;49.306;12.862;2022-09-09T04:37:18;13.60;99.90
12043;DHT22;6082;49.306;12.862;2022-09-09T04:39:44;13.60;99.90
12043;DHT22;6082;49.306;12.862;2022-09-09T04:42:11;13.60;99.90
12043;DHT22;6082;49.306;12.862;2022-09-09T04:44:38;13.50;99.90
12043;DHT22;6082;49.306;12.862;2022-09-09T04:47:04;13.60;99.90
12043;DHT22;6082;49.306;12.862;2022-09-09T04:49:30;13.50;99.90
12043;DHT22;6082;49.306;12.862;2022-09-09T04:51:56;13.50;99.90
12043;DHT22;6082;49.306;12.862;2022-09-09T04:54:22;13.50;99.90
12043;DHT22;6082;49.306;12.862;2022-09-09T04:56:50;13.60;99.90
12043;DHT22;6082;49.306;12.862;2022-09-09T04:59:16;13.60;99.90
12043;DHT22;6082;49.306;12.862;2022-09-09T05:01:42;13.60;99.90
12043;DHT22;6082;49.306;12.862;2022-09-09T05:04:07;13.60;99.90
12043;DHT22;6082;49.306;12.862;2022-09-09T05:06:34;13.60;99.90
12043;DHT22;6082;49.306;12.862;2022-09-09T05:09:01;13.60;99.90
12043;DHT22;6082;49.306;12.862;2022-09-09T05:11:29;13.60;99.90
12043;DHT22;6082;49.306;12.862;2022-09-09T05:13:55;13.60;99.90
12043;DHT22;6082;49.306;12.862;2022-09-09T05:16:22;13.60;99.90
12043;DHT22;6082;49.306;12.862;2022-09-09T05:18:48;13.60;99.90
12043;DHT22;6082;49.306;12.862;2022-09-09T05:21:17;13.60;99.90
12043;DHT22;6082;49.306;12.862;2022-09-09T05:23:44;13.60;99.90
12043;DHT22;6082;49.306;12.862;2022-09-09T05:26:13;13.50;99.90
12043;DHT22;6082;49.306;12.862;2022-09-09T05:28:44;13.60;99.90
12043;DHT22;6082;49.306;12.862;2022-09-09T05:31:11;13.50;99.90
12043;DHT22;6082;49.306;12.862;2022-09-09T05:33:39;13.50;99.90
12043;DHT22;6082;49.306;12.862;2022-09-09T05:36:10;13.60;99.90
12043;DHT22;6082;49.306;12.862;2022-09-09T05:38:39;13.60;99.90
12043;DHT22;6082;49.306;12.862;2022-09-09T05:41:05;13.60;99.90
12043;DHT22;6082;49.306;12.862;2022-09-09T05:43:31;13.60;99.90
12043;DHT22;6082;49.306;12.862;2022-09-09T05:48:33;13.70;99.90
12043;DHT22;6082;49.306;12.862;2022-09-09T05:51:00;13.70;99.90
12043;DHT22;6082;49.306;12.862;2022-09-09T05:53:29;13.80;99.90
12043;DHT22;6082;49.306;12.862;2022-09-09T05:56:17;13.80;99.90
12043;DHT22;6082;49.306;12.862;2022-09-09T05:58:43;13.90;99.90
12043;DHT22;6082;49.306;12.862;2022-09-09T06:01:11;14.00;99.90
12043;DHT22;6082;49.306;12.862;2022-09-09T06:03:39;14.00;99.90
12043;DHT22;6082;49.306;12.862;2022-09-09T06:06:07;14.10;99.90
12043;DHT22;6082;49.306;12.862;2022-09-09T06:08:38;14.20;99.90
12043;DHT22;6082;49.306;12.862;2022-09-09T06:11:09;14.40;99.90
12043;DHT22;6082;49.306;12.862;2022-09-09T06:13:35;14.40;99.90
12043;DHT22;6082;49.306;12.862;2022-09-09T06:16:03;14.60;99.90
12043;DHT22;6082;49.306;12.862;2022-09-09T06:18:29;14.60;99.90
12043;DHT22;6082;49.306;12.862;2022-09-09T06:21:02;14.70;99.90
12043;DHT22;6082;49.306;12.862;2022-09-09T06:23:35;14.90;99.90
12043;DHT22;6082;49.306;12.862;2022-09-09T06:26:16;15.00;99.90
12043;DHT22;6082;49.306;12.862;2022-09-09T06:28:47;15.00;99.90
12043;DHT22;6082;49.306;12.862;2022-09-09T06:31:15;15.20;99.90
12043;DHT22;6082;49.306;12.862;2022-09-09T06:33:47;15.20;99.90
12043;DHT22;6082;49.306;12.862;2022-09-09T06:36:15;15.30;99.90
12043;DHT22;6082;49.306;12.862;2022-09-09T06:38:42;15.30;99.90
12043;DHT22;6082;49.306;12.862;2022-09-09T06:41:09;15.30;99.90
12043;DHT22;6082;49.306;12.862;2022-09-09T06:43:35;15.30;99.90
12043;DHT22;6082;49.306;12.862;2022-09-09T06:46:25;15.40;99.90
12043;DHT22;6082;49.306;12.862;2022-09-09T06:48:56;15.50;99.90
12043;DHT22;6082;49.306;12.862;2022-09-09T06:51:34;15.60;99.90
12043;DHT22;6082;49.306;12.862;2022-09-09T06:54:01;15.60;99.90
12043;DHT22;6082;49.306;12.862;2022-09-09T06:56:29;15.80;99.90
12043;DHT22;6082;49.306;12.862;2022-09-09T06:58:57;15.80;99.90
12043;DHT22;6082;49.306;12.862;2022-09-09T07:01:28;15.90;99.90
12043;DHT22;6082;49.306;12.862;2022-09-09T07:03:56;16.10;99.90
12043;DHT22;6082;49.306;12.862;2022-09-09T07:06:32;16.20;99.90
12043;DHT22;6082;49.306;12.862;2022-09-09T07:09:04;16.30;99.90
12043;DHT22;6082;49.306;12.862;2022-09-09T07:11:32;16.40;99.90
12043;DHT22;6082;49.306;12.862;2022-09-09T07:13:59;16.60;99.90
12043;DHT22;6082;49.306;12.862;2022-09-09T07:16:26;16.70;99.90
12043;DHT22;6082;49.306;12.862;2022-09-09T07:18:53;16.80;99.90
12043;DHT22;6082;49.306;12.862;2022-09-09T07:21:23;16.90;99.90
12043;DHT22;6082;49.306;12.862;2022-09-09T07:23:49;16.90;99.90
12043;DHT22;6082;49.306;12.862;2022-09-09T07:26:18;17.00;99.90
12043;DHT22;6082;49.306;12.862;2022-09-09T07:28:45;17.00;99.90
12043;DHT22;6082;49.306;12.862;2022-09-09T07:31:19;17.00;99.90
12043;DHT22;6082;49.306;12.862;2022-09-09T07:33:46;16.90;99.90
12043;DHT22;6082;49.306;12.862;2022-09-09T07:38:45;17.00;99.90
12043;DHT22;6082;49.306;12.862;2022-09-09T07:41:17;17.00;99.90
12043;DHT22;6082;49.306;12.862;2022-09-09T07:43:44;17.10;99.90
12043;DHT22;6082;49.306;12.862;2022-09-09T07:46:12;17.20;99.90
12043;DHT22;6082;49.306;12.862;2022-09-09T07:48:42;17.30;99.90
12043;DHT22;6082;49.306;12.862;2022-09-09T07:51:09;17.40;99.90
12043;DHT22;6082;49.306;12.862;2022-09-09T07:53:36;17.40;99.90
12043;DHT22;6082;49.306;12.862;2022-09-09T07:56:06;17.30;99.90
12043;DHT22;6082;49.306;12.862;2022-09-09T07:58:33;17.20;99.90
12043;DHT22;6082;49.306;12.862;2022-09-09T08:00:58;17.20;99.90
12043;DHT22;6082;49.306;12.862;2022-09-09T08:03:24;17.30;99.90
12043;DHT22;6082;49.306;12.862;2022-09-09T08:05:50;17.40;99.90
12043;DHT22;6082;49.306;12.862;2022-09-09T08:08:15;17.50;99.90
12043;DHT22;6082;49.306;12.862;2022-09-09T08:10:42;17.60;99.90
12043;DHT22;6082;49.306;12.862;2022-09-09T08:13:09;17.70;99.90
12043;DHT22;6082;49.306;12.862;2022-09-09T08:15:34;17.80;99.90
12043;DHT22;6082;49.306;12.862;2022-09-09T08:18:00;17.90;99.90
12043;DHT22;6082;49.306;12.862;2022-09-09T08:20:25;17.90;99.90
12043;DHT22;6082;49.306;12.862;2022-09-09T08:22:51;18.10;99.90
12043;DHT22;6082;49.306;12.862;2022-09-09T08:25:17;18.10;99.90
12043;DHT22;6082;49.306;12.862;2022-09-09T08:27:42;18.30;99.90
12043;DHT22;6082;49.306;12.862;2022-09-09T08:30:09;18.40;99.90
12043;DHT22;6082;49.306;12.862;2022-09-09T08:32:35;18.40;99.90
12043;DHT22;6082;49.306;12.862;2022-09-09T08:35:00;18.50;99.90
12043;DHT22;6082;49.306;12.862;2022-09-09T08:37:26;18.50;99.90
12043;DHT22;6082;49.306;12.862;2022-09-09T08:39:52;18.60;99.90
12043;DHT22;6082;49.306;12.862;2022-09-09T08:42:44;18.70;99.90
12043;DHT22;6082;49.306;12.862;2022-09-09T08:48:14;18.80;99.90
12043;DHT22;6082;49.306;12.862;2022-09-09T08:50:43;19.00;99.90
12043;DHT22;6082;49.306;12.862;2022-09-09T08:53:26;19.10;99.90
12043;DHT22;6082;49.306;12.862;2022-09-09T08:56:01;19.20;99.90
12043;DHT22;6082;49.306;12.862;2022-09-09T08:58:31;19.40;99.90
12043;DHT22;6082;49.306;12.862;2022-09-09T09:03:57;19.70;99.90
12043;DHT22;6082;49.306;12.862;2022-09-09T09:11:51;20.00;99.90
12043;DHT22;6082;49.306;12.862;2022-09-09T09:14:41;20.10;99.90
12043;DHT22;6082;49.306;12.862;2022-09-09T09:17:35;20.20;99.90
12043;DHT22;6082;49.306;12.862;2022-09-09T09:20:05;20.40;99.90
12043;DHT22;6082;49.306;12.862;2022-09-09T09:25:21;20.40;99.90
12043;DHT22;6082;49.306;12.862;2022-09-09T09:28:00;20.30;99.90
12043;DHT22;6082;49.306;12.862;2022-09-09T09:30:31;20.30;99.90
12043;DHT22;6082;49.306;12.862;2022-09-09T09:33:05;20.30;99.90
12043;DHT22;6082;49.306;12.862;2022-09-09T09:35:34;20.20;99.90
12043;DHT22;6082;49.306;12.862;2022-09-09T09:37:59;20.10;99.90
12043;DHT22;6082;49.306;12.862;2022-09-09T09:40:26;20.00;99.90
12043;DHT22;6082;49.306;12.862;2022-09-09T09:42:58;20.00;99.90
12043;DHT22;6082;49.306;12.862;2022-09-09T09:45:40;20.00;99.90
12043;DHT22;6082;49.306;12.862;2022-09-09T09:48:10;20.00;99.90
12043;DHT22;6082;49.306;12.862;2022-09-09T09:50:48;20.10;99.90
12043;DHT22;6082;49.306;12.862;2022-09-09T09:53:32;20.10;99.90
12043;DHT22;6082;49.306;12.862;2022-09-09T09:56:04;20.10;99.90
12043;DHT22;6082;49.306;12.862;2022-09-09T09:58:32;20.10;99.90
12043;DHT22;6082;49.306;12.862;2022-09-09T10:01:00;20.10;99.90
12043;DHT22;6082;49.306;12.862;2022-09-09T10:03:30;20.10;99.90
12043;DHT22;6082;49.306;12.862;2022-09-09T10:05:57;20.10;99.90
12043;DHT22;6082;49.306;12.862;2022-09-09T10:08:26;20.10;99.90
12043;DHT22;6082;49.306;12.862;2022-09-09T10:19:13;19.90;99.90
12043;DHT22;6082;49.306;12.862;2022-09-09T10:22:08;19.80;99.90
12043;DHT22;6082;49.306;12.862;2022-09-09T10:40:39;19.50;99.90
12043;DHT22;6082;49.306;12.862;2022-09-09T10:51:27;19.30;99.90
12043;DHT22;6082;49.306;12.862;2022-09-09T10:54:32;19.30;99.90
12043;DHT22;6082;49.306;12.862;2022-09-09T10:57:05;19.30;99.90
12043;DHT22;6082;49.306;12.862;2022-09-09T10:59:42;19.30;99.90
12043;DHT22;6082;49.306;12.862;2022-09-09T11:02:31;19.30;99.90
12043;DHT22;6082;49.306;12.862;2022-09-09T11:10:25;19.50;99.90
12043;DHT22;6082;49.306;12.862;2022-09-09T11:12:59;19.60;99.90
12043;DHT22;6082;49.306;12.862;2022-09-09T11:15:43;19.60;99.90
12043;DHT22;6082;49.306;12.862;2022-09-09T11:18:18;19.60;99.90
12043;DHT22;6082;49.306;12.862;2022-09-09T11:20:45;19.60;99.90
12043;DHT22;6082;49.306;12.862;2022-09-09T11:23:17;19.70;99.90
12043;DHT22;6082;49.306;12.862;2022-09-09T11:25:50;19.70;99.90
12043;DHT22;6082;49.306;12.862;2022-09-09T11:34:13;19.70;99.90
12043;DHT22;6082;49.306;12.862;2022-09-09T11:36:53;19.60;99.90
12043;DHT22;6082;49.306;12.862;2022-09-09T11:42:27;19.70;99.90
12043;DHT22;6082;49.306;12.862;2022-09-09T11:44:52;19.70;99.90
12043;DHT22;6082;49.306;12.862;2022-09-09T11:47:27;19.60;99.90
12043;DHT22;6082;49.306;12.862;2022-09-09T11:52:45;19.60;99.90
12043;DHT22;6082;49.306;12.862;2022-09-09T11:58:18;19.80;99.90
12043;DHT22;6082;49.306;12.862;2022-09-09T12:00:47;19.80;99.90
12043;DHT22;6082;49.306;12.862;2022-09-09T12:03:35;19.80;99.90
12043;DHT22;6082;49.306;12.862;2022-09-09T12:06:15;19.90;99.90
12043;DHT22;6082;49.306;12.862;2022-09-09T12:08:46;19.90;99.90
12043;DHT22;6082;49.306;12.862;2022-09-09T12:11:24;20.00;99.90
12043;DHT22;6082;49.306;12.862;2022-09-09T12:14:23;20.00;99.90
12043;DHT22;6082;49.306;12.862;2022-09-09T12:17:16;20.10;99.90
12043;DHT22;6082;49.306;12.862;2022-09-09T12:19:43;20.10;99.90
12043;DHT22;6082;49.306;12.862;2022-09-09T12:23:02;20.10;99.90
12043;DHT22;6082;49.306;12.862;2022-09-09T12:30:40;20.10;99.90
12043;DHT22;6082;49.306;12.862;2022-09-09T12:33:17;20.20;99.90
12043;DHT22;6082;49.306;12.862;2022-09-09T12:35:45;20.30;99.90
12043;DHT22;6082;49.306;12.862;2022-09-09T12:38:29;20.50;99.90
12043;DHT22;6082;49.306;12.862;2022-09-09T12:40:57;20.60;99.90
12043;DHT22;6082;49.306;12.862;2022-09-09T12:43:25;20.60;99.90
12043;DHT22;6082;49.306;12.862;2022-09-09T12:45:54;20.80;99.90
12043;DHT22;6082;49.306;12.862;2022-09-09T12:48:33;20.90;99.90
12043;DHT22;6082;49.306;12.862;2022-09-09T12:51:00;20.90;99.90
12043;DHT22;6082;49.306;12.862;2022-09-09T12:53:37;21.00;99.90
12043;DHT22;6082;49.306;12.862;2022-09-09T12:56:08;21.10;99.90
12043;DHT22;6082;49.306;12.862;2022-09-09T12:58:36;21.10;99.90
12043;DHT22;6082;49.306;12.862;2022-09-09T13:01:04;21.20;99.90
12043;DHT22;6082;49.306;12.862;2022-09-09T13:03:41;21.30;99.90
12043;DHT22;6082;49.306;12.862;2022-09-09T13:06:13;21.40;99.90
12043;DHT22;6082;49.306;12.862;2022-09-09T13:08:39;21.50;99.90
12043;DHT22;6082;49.306;12.862;2022-09-09T13:11:19;21.60;99.90
12043;DHT22;6082;49.306;12.862;2022-09-09T13:13:55;21.70;99.90
12043;DHT22;6082;49.306;12.862;2022-09-09T13:16:28;21.70;99.90
12043;DHT22;6082;49.306;12.862;2022-09-09T13:19:00;21.80;99.90
12043;DHT22;6082;49.306;12.862;2022-09-09T13:21:37;21.90;99.90
12043;DHT22;6082;49.306;12.862;2022-09-09T13:24:58;22.10;99.90
12043;DHT22;6082;49.306;12.862;2022-09-09T13:27:00;22.20;99.90
12043;DHT22;6082;49.306;12.862;2022-09-09T13:29:31;22.30;99.90
12043;DHT22;6082;49.306;12.862;2022-09-09T13:32:15;22.20;99.90
12043;DHT22;6082;49.306;12.862;2022-09-09T13:34:51;22.30;99.90
12043;DHT22;6082;49.306;12.862;2022-09-09T13:39:52;22.30;99.90
12043;DHT22;6082;49.306;12.862;2022-09-09T13:42:28;22.30;99.90
12043;DHT22;6082;49.306;12.862;2022-09-09T13:44:56;22.30;99.90
12043;DHT22;6082;49.306;12.862;2022-09-09T13:47:30;22.30;99.90
12043;DHT22;6082;49.306;12.862;2022-09-09T13:49:56;22.40;99.90
12043;DHT22;6082;49.306;12.862;2022-09-09T13:52:23;22.40;99.90
12043;DHT22;6082;49.306;12.862;2022-09-09T13:54:49;22.30;99.90
12043;DHT22;6082;49.306;12.862;2022-09-09T13:57:24;22.30;99.90
12043;DHT22;6082;49.306;12.862;2022-09-09T13:59:52;22.20;99.90
12043;DHT22;6082;49.306;12.862;2022-09-09T14:02:20;22.30;99.90
12043;DHT22;6082;49.306;12.862;2022-09-09T14:04:46;22.30;99.90
12043;DHT22;6082;49.306;12.862;2022-09-09T14:07:14;22.20;99.90
12043;DHT22;6082;49.306;12.862;2022-09-09T14:09:41;22.20;99.90
12043;DHT22;6082;49.306;12.862;2022-09-09T14:12:11;22.20;99.90
12043;DHT22;6082;49.306;12.862;2022-09-09T14:14:37;22.20;99.90
12043;DHT22;6082;49.306;12.862;2022-09-09T14:17:03;22.20;99.90
12043;DHT22;6082;49.306;12.862;2022-09-09T14:19:29;22.20;99.90
12043;DHT22;6082;49.306;12.862;2022-09-09T14:21:56;22.20;99.90
12043;DHT22;6082;49.306;12.862;2022-09-09T14:24:22;22.10;99.90
12043;DHT22;6082;49.306;12.862;2022-09-09T14:26:48;22.20;99.90
12043;DHT22;6082;49.306;12.862;2022-09-09T14:29:13;22.20;99.90
12043;DHT22;6082;49.306;12.862;2022-09-09T14:31:40;22.20;99.90
12043;DHT22;6082;49.306;12.862;2022-09-09T14:34:06;22.30;99.90
12043;DHT22;6082;49.306;12.862;2022-09-09T14:36:32;22.20;99.90
12043;DHT22;6082;49.306;12.862;2022-09-09T14:38:58;22.20;99.90
12043;DHT22;6082;49.306;12.862;2022-09-09T14:41:24;22.20;99.90
12043;DHT22;6082;49.306;12.862;2022-09-09T14:43:50;22.20;99.90
12043;DHT22;6082;49.306;12.862;2022-09-09T14:46:18;22.10;99.90
12043;DHT22;6082;49.306;12.862;2022-09-09T14:48:44;22.10;99.90
12043;DHT22;6082;49.306;12.862;2022-09-09T14:51:14;22.10;99.90
12043;DHT22;6082;49.306;12.862;2022-09-09T14:53:41;22.10;99.90
12043;DHT22;6082;49.306;12.862;2022-09-09T14:56:10;22.10;99.90
12043;DHT22;6082;49.306;12.862;2022-09-09T14:58:36;22.00;99.90
12043;DHT22;6082;49.306;12.862;2022-09-09T15:01:08;21.90;99.90
12043;DHT22;6082;49.306;12.862;2022-09-09T15:03:36;22.00;99.90
12043;DHT22;6082;49.306;12.862;2022-09-09T15:06:07;22.00;99.90
12043;DHT22;6082;49.306;12.862;2022-09-09T15:08:37;22.00;99.90
12043;DHT22;6082;49.306;12.862;2022-09-09T15:11:04;22.00;99.90
12043;DHT22;6082;49.306;12.862;2022-09-09T15:13:30;21.90;99.90
12043;DHT22;6082;49.306;12.862;2022-09-09T15:16:06;21.90;99.90
12043;DHT22;6082;49.306;12.862;2022-09-09T15:18:33;21.80;99.90
12043;DHT22;6082;49.306;12.862;2022-09-09T15:20:59;21.80;99.90
12043;DHT22;6082;49.306;12.862;2022-09-09T15:23:27;21.70;99.90
12043;DHT22;6082;49.306;12.862;2022-09-09T15:25:56;21.50;99.90
12043;DHT22;6082;49.306;12.862;2022-09-09T15:28:22;21.40;99.90
12043;DHT22;6082;49.306;12.862;2022-09-09T15:30:49;21.30;99.90
12043;DHT22;6082;49.306;12.862;2022-09-09T15:33:15;21.20;99.90
12043;DHT22;6082;49.306;12.862;2022-09-09T15:35:41;21.20;99.90
12043;DHT22;6082;49.306;12.862;2022-09-09T15:38:06;21.20;99.90
12043;DHT22;6082;49.306;12.862;2022-09-09T15:40:32;21.10;99.90
12043;DHT22;6082;49.306;12.862;2022-09-09T15:42:58;21.10;99.90
12043;DHT22;6082;49.306;12.862;2022-09-09T15:45:24;21.00;99.90
12043;DHT22;6082;49.306;12.862;2022-09-09T15:47:50;21.00;99.90
12043;DHT22;6082;49.306;12.862;2022-09-09T15:50:15;20.90;99.90
12043;DHT22;6082;49.306;12.862;2022-09-09T15:52:41;20.90;99.90
12043;DHT22;6082;49.306;12.862;2022-09-09T15:55:07;20.90;99.90
12043;DHT22;6082;49.306;12.862;2022-09-09T15:57:34;20.80;99.90
12043;DHT22;6082;49.306;12.862;2022-09-09T16:00:00;20.80;99.90
12043;DHT22;6082;49.306;12.862;2022-09-09T16:02:26;20.70;99.90
12043;DHT22;6082;49.306;12.862;2022-09-09T16:04:52;20.60;99.90
12043;DHT22;6082;49.306;12.862;2022-09-09T16:07:18;20.60;99.90
12043;DHT22;6082;49.306;12.862;2022-09-09T16:09:46;20.60;99.90
12043;DHT22;6082;49.306;12.862;2022-09-09T16:12:11;20.50;99.90
12043;DHT22;6082;49.306;12.862;2022-09-09T16:14:38;20.40;99.90
12043;DHT22;6082;49.306;12.862;2022-09-09T16:17:05;20.40;99.90
12043;DHT22;6082;49.306;12.862;2022-09-09T16:19:31;20.40;99.90
12043;DHT22;6082;49.306;12.862;2022-09-09T16:21:57;20.30;99.90
12043;DHT22;6082;49.306;12.862;2022-09-09T16:24:23;20.30;99.90
12043;DHT22;6082;49.306;12.862;2022-09-09T16:26:51;20.30;99.90
12043;DHT22;6082;49.306;12.862;2022-09-09T16:29:18;20.30;99.90
12043;DHT22;6082;49.306;12.862;2022-09-09T16:31:48;20.20;99.90
12043;DHT22;6082;49.306;12.862;2022-09-09T16:34:15;20.10;99.90
12043;DHT22;6082;49.306;12.862;2022-09-09T16:36:42;20.10;99.90
12043;DHT22;6082;49.306;12.862;2022-09-09T16:39:10;19.90;99.90
12043;DHT22;6082;49.306;12.862;2022-09-09T16:41:37;19.90;99.90
12043;DHT22;6082;49.306;12.862;2022-09-09T16:44:05;19.90;99.90
12043;DHT22;6082;49.306;12.862;2022-09-09T16:46:33;19.80;99.90
12043;DHT22;6082;49.306;12.862;2022-09-09T16:49:00;19.80;99.90
12043;DHT22;6082;49.306;12.862;2022-09-09T16:51:31;19.70;99.90
12043;DHT22;6082;49.306;12.862;2022-09-09T16:54:01;19.70;99.90
12043;DHT22;6082;49.306;12.862;2022-09-09T16:56:29;19.60;99.90
12043;DHT22;6082;49.306;12.862;2022-09-09T16:59:00;19.50;99.90
12043;DHT22;6082;49.306;12.862;2022-09-09T17:01:29;19.50;99.90
12043;DHT22;6082;49.306;12.862;2022-09-09T17:04:01;19.50;99.90
12043;DHT22;6082;49.306;12.862;2022-09-09T17:06:29;19.50;99.90
12043;DHT22;6082;49.306;12.862;2022-09-09T17:08:57;19.40;99.90
12043;DHT22;6082;49.306;12.862;2022-09-09T17:11:23;19.40;99.90
12043;DHT22;6082;49.306;12.862;2022-09-09T17:13:50;19.30;99.90
12043;DHT22;6082;49.306;12.862;2022-09-09T17:16:18;19.30;99.90
12043;DHT22;6082;49.306;12.862;2022-09-09T17:18:44;19.30;99.90
12043;DHT22;6082;49.306;12.862;2022-09-09T17:21:16;19.30;99.90
12043;DHT22;6082;49.306;12.862;2022-09-09T17:23:43;19.20;99.90
12043;DHT22;6082;49.306;12.862;2022-09-09T17:26:12;19.20;99.90
12043;DHT22;6082;49.306;12.862;2022-09-09T17:28:39;19.20;99.90
12043;DHT22;6082;49.306;12.862;2022-09-09T17:31:07;19.10;99.90
12043;DHT22;6082;49.306;12.862;2022-09-09T17:33:35;19.10;99.90
12043;DHT22;6082;49.306;12.862;2022-09-09T17:36:07;19.10;99.90
12043;DHT22;6082;49.306;12.862;2022-09-09T17:38:35;19.10;99.90
12043;DHT22;6082;49.306;12.862;2022-09-09T17:41:22;19.00;99.90
12043;DHT22;6082;49.306;12.862;2022-09-09T17:43:49;19.00;99.90
12043;DHT22;6082;49.306;12.862;2022-09-09T17:46:18;19.00;99.90
12043;DHT22;6082;49.306;12.862;2022-09-09T17:48:49;19.00;99.90
12043;DHT22;6082;49.306;12.862;2022-09-09T17:51:17;19.00;99.90
12043;DHT22;6082;49.306;12.862;2022-09-09T17:53:47;19.00;99.90